Time;durP1;ratioP1;P1;durP2;ratioP2;P2;SDS_P1;SDS_P2;PMS_P1;PMS_P2;Temp;Humidity;BMP_temperature;BMP_pressure;BME280_temperature;BME280_humidity;BME280_pressure;Samples;Min_cycle;Max_cycle;Signal;HPM_P1;HPM_P2
2022/08/07 00:00:35;;;;;;;3.15;2.33;;;;;;;;;;5054626;28;20075;-40
2022/08/07 00:03:01;;;;;;;2.45;2.00;;;;;;;;;;5054592;28;20025;-39
2022/08/07 00:05:27;;;;;;;2.30;2.10;;;;;;;;;;5054527;28;20531;-40
2022/08/07 00:07:53;;;;;;;2.50;2.20;;;;;;;;;;5054601;28;20431;-47
2022/08/07 00:10:19;;;;;;;4.40;2.40;;;;;;;;;;5054435;28;20025;-39
2022/08/07 00:12:45;;;;;;;2.30;2.10;;;;;;;;;;5052646;28;20041;-39
2022/08/07 00:15:11;;;;;;;2.67;2.20;;;;;;;;;;5052619;28;20061;-41
2022/08/07 00:17:36;;;;;;;2.15;2.05;;;;;;;;;;5052494;28;20044;-53
2022/08/07 00:20:04;;;;;;;3.65;2.10;;;;;;;;;;5052658;28;20028;-49
2022/08/07 00:22:30;;;;;;;2.60;2.40;;;;;;;;;;5052367;28;20504;-48
2022/08/07 00:24:55;;;;;;;2.47;2.10;;;;;;;;;;5051751;28;20025;-48
2022/08/07 00:27:21;;;;;;;2.03;1.92;;;;;;;;;;5051911;28;20055;-40
2022/08/07 00:29:47;;;;;;;3.08;1.95;;;;;;;;;;5052006;28;20594;-52
2022/08/07 00:32:13;;;;;;;2.40;2.20;;;;;;;;;;5052214;28;20041;-47
2022/08/07 00:34:39;;;;;;;2.42;2.15;;;;;;;;;;5052742;28;20461;-39
2022/08/07 00:37:05;;;;;;;4.55;2.22;;;;;;;;;;5053572;28;20031;-39
2022/08/07 00:39:32;;;;;;;2.25;2.00;;;;;;;;;;5053873;28;20388;-40
2022/08/07 00:41:58;;;;;;;2.22;2.00;;;;;;;;;;5053808;28;20029;-40
2022/08/07 00:44:24;;;;;;;2.67;2.08;;;;;;;;;;5053339;28;20029;-55
2022/08/07 00:46:50;;;;;;;2.40;2.20;;;;;;;;;;5053792;28;20079;-39
2022/08/07 00:49:15;;;;;;;2.20;2.00;;;;;;;;;;5053402;28;20362;-39
2022/08/07 00:51:41;;;;;;;2.92;2.22;;;;;;;;;;5053209;28;20040;-40
2022/08/07 00:54:07;;;;;;;3.53;2.42;;;;;;;;;;5053061;28;20122;-39
2022/08/07 00:56:33;;;;;;;2.08;1.98;;;;;;;;;;5053458;28;20457;-40
2022/08/07 00:58:59;;;;;;;2.15;2.03;;;;;;;;;;5053216;28;20056;-39
2022/08/07 01:01:25;;;;;;;3.03;2.20;;;;;;;;;;5053311;28;20107;-52
2022/08/07 01:03:51;;;;;;;2.65;2.28;;;;;;;;;;5053119;28;20100;-49
2022/08/07 01:06:18;;;;;;;2.40;2.20;;;;;;;;;;5053055;28;20090;-44
2022/08/07 01:08:45;;;;;;;2.03;1.88;;;;;;;;;;5052432;28;20032;-40
2022/08/07 01:11:15;;;;;;;3.60;2.10;;;;;;;;;;5052405;28;20406;-42
2022/08/07 01:13:40;;;;;;;2.78;2.15;;;;;;;;;;5052846;28;20538;-40
2022/08/07 01:16:07;;;;;;;2.25;1.90;;;;;;;;;;5053087;28;20025;-49
2022/08/07 01:18:34;;;;;;;2.47;2.28;;;;;;;;;;5052898;28;20025;-41
2022/08/07 01:21:16;;;;;;;2.80;2.53;;;;;;;;;;5052813;28;20040;-39
2022/08/07 01:23:44;;;;;;;2.42;2.10;;;;;;;;;;5052784;28;20033;-46
2022/08/07 01:26:12;;;;;;;3.00;2.20;;;;;;;;;;5052706;28;20040;-39
2022/08/07 01:28:44;;;;;;;2.75;2.30;;;;;;;;;;5052635;28;20028;-40
2022/08/07 01:31:10;;;;;;;2.83;2.00;;;;;;;;;;5052974;28;20033;-39
2022/08/07 01:33:36;;;;;;;2.40;2.20;;;;;;;;;;5052698;28;20031;-40
2022/08/07 01:36:03;;;;;;;2.45;2.25;;;;;;;;;;5052525;28;20549;-40
2022/08/07 01:38:29;;;;;;;2.10;1.80;;;;;;;;;;5052112;28;20013;-39
2022/08/07 01:40:57;;;;;;;2.10;2.00;;;;;;;;;;5052463;28;20546;-40
2022/08/07 01:43:24;;;;;;;2.13;1.98;;;;;;;;;;5052494;28;20114;-39
2022/08/07 01:45:50;;;;;;;3.45;2.28;;;;;;;;;;5052414;28;20029;-40
2022/08/07 01:48:16;;;;;;;2.20;2.10;;;;;;;;;;5052707;28;20048;-40
2022/08/07 01:50:46;;;;;;;3.25;2.95;;;;;;;;;;5052589;28;20417;-53
2022/08/07 01:53:13;;;;;;;4.55;2.42;;;;;;;;;;5052169;28;20481;-42
2022/08/07 01:55:44;;;;;;;2.45;2.25;;;;;;;;;;5052374;28;20025;-41
2022/08/07 01:58:13;;;;;;;2.72;2.15;;;;;;;;;;5052274;28;20504;-47
2022/08/07 02:00:41;;;;;;;2.45;2.25;;;;;;;;;;5052289;28;20072;-41
2022/08/07 02:03:10;;;;;;;5.28;2.13;;;;;;;;;;5052249;28;20029;-41
2022/08/07 02:05:41;;;;;;;2.58;2.22;;;;;;;;;;5052259;28;20067;-40
2022/08/07 02:08:13;;;;;;;2.55;2.35;;;;;;;;;;5052307;28;20044;-40
2022/08/07 02:10:40;;;;;;;2.50;2.30;;;;;;;;;;5052212;28;20025;-40
2022/08/07 02:13:06;;;;;;;2.72;2.45;;;;;;;;;;5052450;28;20086;-40
2022/08/07 02:15:33;;;;;;;3.05;2.30;;;;;;;;;;5052436;28;20029;-40
2022/08/07 02:18:01;;;;;;;3.15;2.33;;;;;;;;;;5052103;28;20087;-40
2022/08/07 02:20:29;;;;;;;4.28;2.28;;;;;;;;;;5052130;28;20071;-40
2022/08/07 02:23:03;;;;;;;2.20;2.00;;;;;;;;;;5052110;28;20602;-40
2022/08/07 02:25:32;;;;;;;2.58;2.38;;;;;;;;;;5052378;28;20029;-40
2022/08/07 02:28:00;;;;;;;2.78;2.50;;;;;;;;;;5052341;28;20117;-40
2022/08/07 02:30:27;;;;;;;2.10;2.00;;;;;;;;;;5052352;28;20052;-40
2022/08/07 02:32:55;;;;;;;3.40;2.92;;;;;;;;;;5051916;28;20541;-40
2022/08/07 02:35:21;;;;;;;3.58;2.28;;;;;;;;;;5051903;28;20472;-40
2022/08/07 02:37:48;;;;;;;2.78;2.30;;;;;;;;;;5051968;28;20025;-45
2022/08/07 02:40:14;;;;;;;2.50;2.30;;;;;;;;;;5051877;28;20025;-40
2022/08/07 02:42:41;;;;;;;2.35;2.15;;;;;;;;;;5051808;28;20031;-40
2022/08/07 02:45:11;;;;;;;2.58;2.38;;;;;;;;;;5051873;28;20033;-41
2022/08/07 02:47:37;;;;;;;2.97;2.47;;;;;;;;;;5052061;28;20040;-47
2022/08/07 02:50:03;;;;;;;2.97;2.70;;;;;;;;;;5051869;28;20025;-41
2022/08/07 02:52:33;;;;;;;3.15;2.50;;;;;;;;;;5054784;28;20136;-42
2022/08/07 02:55:03;;;;;;;2.58;2.40;;;;;;;;;;5055679;28;20127;-40
2022/08/07 02:57:30;;;;;;;2.50;2.30;;;;;;;;;;5055888;28;20025;-40
2022/08/07 02:59:58;;;;;;;5.72;2.70;;;;;;;;;;5055549;28;20104;-40
2022/08/07 03:02:24;;;;;;;3.00;2.70;;;;;;;;;;5055733;28;20029;-40
2022/08/07 03:04:52;;;;;;;5.68;2.70;;;;;;;;;;5055694;28;20102;-42
2022/08/07 03:07:19;;;;;;;2.50;2.30;;;;;;;;;;5055390;28;20031;-41
2022/08/07 03:09:44;;;;;;;2.75;2.50;;;;;;;;;;5055388;28;20508;-51
2022/08/07 03:12:11;;;;;;;3.78;2.45;;;;;;;;;;5055439;28;20025;-55
2022/08/07 03:14:37;;;;;;;2.78;2.55;;;;;;;;;;5055351;28;20408;-40
2022/08/07 03:17:05;;;;;;;2.95;2.60;;;;;;;;;;5055250;28;20461;-40
2022/08/07 03:19:32;;;;;;;2.58;2.38;;;;;;;;;;5055126;28;20484;-55
2022/08/07 03:21:57;;;;;;;4.13;2.70;;;;;;;;;;5055431;28;20044;-40
2022/08/07 03:24:23;;;;;;;2.65;2.45;;;;;;;;;;5055064;28;20468;-40
2022/08/07 03:26:50;;;;;;;4.60;2.60;;;;;;;;;;5054977;28;20145;-40
2022/08/07 03:29:17;;;;;;;4.20;2.95;;;;;;;;;;5054982;28;20021;-42
2022/08/07 03:31:45;;;;;;;3.20;2.90;;;;;;;;;;5055159;28;20021;-50
2022/08/07 03:34:13;;;;;;;2.97;2.67;;;;;;;;;;5055078;28;20056;-40
2022/08/07 03:36:39;;;;;;;3.58;2.53;;;;;;;;;;5054863;28;20033;-41
2022/08/07 03:39:08;;;;;;;2.90;2.63;;;;;;;;;;5054728;28;20031;-47
2022/08/07 03:41:36;;;;;;;5.80;2.70;;;;;;;;;;5055032;28;20424;-55
2022/08/07 03:44:02;;;;;;;2.72;2.53;;;;;;;;;;5054561;28;20036;-41
2022/08/07 03:46:29;;;;;;;3.65;2.80;;;;;;;;;;5054620;28;20033;-40
2022/08/07 03:48:55;;;;;;;3.80;2.70;;;;;;;;;;5054890;28;20112;-59
2022/08/07 03:51:21;;;;;;;2.85;2.55;;;;;;;;;;5054466;28;20112;-40
2022/08/07 03:53:47;;;;;;;3.00;2.70;;;;;;;;;;5054397;28;20048;-59
2022/08/07 03:56:19;;;;;;;3.05;2.75;;;;;;;;;;5054451;28;20385;-56
2022/08/07 03:58:45;;;;;;;3.13;2.85;;;;;;;;;;5054807;28;20419;-55
2022/08/07 04:01:12;;;;;;;8.15;3.13;;;;;;;;;;5054486;28;20048;-40
2022/08/07 04:03:38;;;;;;;11.15;2.92;;;;;;;;;;5054268;28;20376;-58
2022/08/07 04:06:08;;;;;;;4.28;2.90;;;;;;;;;;5054533;28;20167;-40
2022/08/07 04:08:33;;;;;;;5.28;2.60;;;;;;;;;;5054457;28;20025;-42
2022/08/07 04:10:59;;;;;;;2.70;2.50;;;;;;;;;;5054153;28;20622;-43
2022/08/07 04:13:25;;;;;;;2.70;2.50;;;;;;;;;;5054387;28;20044;-40
2022/08/07 04:15:51;;;;;;;3.85;2.67;;;;;;;;;;5054006;28;20021;-40
2022/08/07 04:18:17;;;;;;;3.60;2.50;;;;;;;;;;5054264;28;20031;-40
2022/08/07 04:20:42;;;;;;;2.97;2.67;;;;;;;;;;5053968;28;20020;-40
2022/08/07 04:23:09;;;;;;;3.78;2.70;;;;;;;;;;5054174;28;20037;-40
2022/08/07 04:25:37;;;;;;;3.75;2.83;;;;;;;;;;5054027;28;20029;-40
2022/08/07 04:28:05;;;;;;;2.70;2.50;;;;;;;;;;5053861;28;20028;-43
2022/08/07 04:30:32;;;;;;;2.53;2.30;;;;;;;;;;5053751;28;20480;-40
2022/08/07 04:32:58;;;;;;;3.28;2.60;;;;;;;;;;5053698;28;20057;-40
2022/08/07 04:35:23;;;;;;;7.28;2.50;;;;;;;;;;5053719;28;20525;-40
2022/08/07 04:37:49;;;;;;;2.95;2.30;;;;;;;;;;5053978;28;20041;-47
2022/08/07 04:40:14;;;;;;;4.20;2.45;;;;;;;;;;5053952;28;20021;-40
2022/08/07 04:42:40;;;;;;;2.92;2.58;;;;;;;;;;5053816;28;20029;-40
2022/08/07 04:45:07;;;;;;;7.15;2.30;;;;;;;;;;5053625;28;20021;-40
2022/08/07 04:47:40;;;;;;;2.42;2.20;;;;;;;;;;5053486;28;20021;-44
2022/08/07 04:50:21;;;;;;;3.47;2.40;;;;;;;;;;5053730;28;20025;-41
2022/08/07 04:53:06;;;;;;;3.65;2.47;;;;;;;;;;5053243;28;20404;-58
2022/08/07 04:55:42;;;;;;;4.20;2.35;;;;;;;;;;5053386;28;20036;-40
2022/08/07 04:58:24;;;;;;;2.40;2.20;;;;;;;;;;5053378;28;20044;-40
2022/08/07 05:01:02;;;;;;;2.85;2.40;;;;;;;;;;5053254;28;20054;-42
2022/08/07 05:03:46;;;;;;;2.20;2.00;;;;;;;;;;5053565;28;20017;-52
2022/08/07 05:06:20;;;;;;;2.20;2.10;;;;;;;;;;5053411;28;20015;-40
2022/08/07 05:09:24;;;;;;;8.13;2.40;;;;;;;;;;5053459;28;20030;-45
2022/08/07 05:11:52;;;;;;;2.58;2.20;;;;;;;;;;5015043;28;20041;-42
2022/08/07 05:14:24;;;;;;;2.72;2.10;;;;;;;;;;5052087;28;20025;-41
2022/08/07 05:16:55;;;;;;;4.50;2.30;;;;;;;;;;5052992;28;20035;-40
2022/08/07 05:19:24;;;;;;;2.60;2.40;;;;;;;;;;5052947;28;20021;-41
2022/08/07 05:21:54;;;;;;;2.13;1.92;;;;;;;;;;5052838;28;20071;-41
2022/08/07 05:24:21;;;;;;;2.15;2.00;;;;;;;;;;5052837;28;20036;-41
2022/08/07 05:26:50;;;;;;;2.10;1.90;;;;;;;;;;5052687;28;20112;-41
2022/08/07 05:29:18;;;;;;;2.08;1.88;;;;;;;;;;5052852;28;20048;-41
2022/08/07 05:31:45;;;;;;;2.88;1.83;;;;;;;;;;5052972;28;20025;-41
2022/08/07 05:34:12;;;;;;;2.25;1.80;;;;;;;;;;5052869;28;20033;-42
2022/08/07 05:36:41;;;;;;;3.70;1.90;;;;;;;;;;5052872;28;20025;-42
2022/08/07 05:39:07;;;;;;;1.73;1.60;;;;;;;;;;5052625;28;20032;-48
2022/08/07 05:41:32;;;;;;;1.77;1.67;;;;;;;;;;5052778;28;20025;-45
2022/08/07 05:43:58;;;;;;;4.00;1.85;;;;;;;;;;5052457;28;20496;-50
2022/08/07 05:46:25;;;;;;;5.90;2.05;;;;;;;;;;5052414;28;20373;-42
2022/08/07 05:48:51;;;;;;;2.05;1.95;;;;;;;;;;5052454;28;20021;-41
2022/08/07 05:51:19;;;;;;;1.80;1.70;;;;;;;;;;5052289;28;20021;-41
2022/08/07 05:53:45;;;;;;;2.90;1.85;;;;;;;;;;5052120;28;20432;-41
2022/08/07 05:56:12;;;;;;;1.80;1.67;;;;;;;;;;5052656;28;20108;-40
2022/08/07 05:58:39;;;;;;;1.73;1.63;;;;;;;;;;5052591;28;20029;-41
2022/08/07 06:01:06;;;;;;;3.80;1.98;;;;;;;;;;5052340;28;20025;-41
2022/08/07 06:03:34;;;;;;;3.90;1.90;;;;;;;;;;5052574;28;20070;-54
2022/08/07 06:06:00;;;;;;;2.10;1.90;;;;;;;;;;5052556;28;20033;-41
2022/08/07 06:08:26;;;;;;;2.15;1.80;;;;;;;;;;5052245;28;20032;-57
2022/08/07 06:10:52;;;;;;;1.90;1.80;;;;;;;;;;5052095;28;20492;-47
2022/08/07 06:13:18;;;;;;;2.33;1.95;;;;;;;;;;5052414;28;20029;-42
2022/08/07 06:15:47;;;;;;;2.17;1.98;;;;;;;;;;5052177;28;20446;-40
2022/08/07 06:18:13;;;;;;;1.90;1.80;;;;;;;;;;5052127;28;20480;-40
2022/08/07 06:20:39;;;;;;;2.08;1.70;;;;;;;;;;5052348;28;20025;-41
2022/08/07 06:23:07;;;;;;;2.78;1.65;;;;;;;;;;5052378;28;20053;-47
2022/08/07 06:25:34;;;;;;;2.63;1.83;;;;;;;;;;5054322;28;20029;-40
2022/08/07 06:28:08;;;;;;;2.42;1.83;;;;;;;;;;5055885;28;20040;-46
2022/08/07 06:30:35;;;;;;;3.83;1.63;;;;;;;;;;5056350;28;20079;-54
2022/08/07 06:33:01;;;;;;;3.15;1.85;;;;;;;;;;5056044;28;20028;-40
2022/08/07 06:35:27;;;;;;;2.47;2.15;;;;;;;;;;5056259;28;20492;-41
2022/08/07 06:37:52;;;;;;;3.75;1.90;;;;;;;;;;5056012;28;20032;-41
2022/08/07 06:40:18;;;;;;;2.67;2.30;;;;;;;;;;5056218;28;20029;-41
2022/08/07 06:42:47;;;;;;;2.40;2.20;;;;;;;;;;5055831;28;20477;-41
2022/08/07 06:45:16;;;;;;;5.20;2.13;;;;;;;;;;5056076;28;20108;-45
2022/08/07 06:47:42;;;;;;;;;;;;;;;;;;5056137;28;20123;-54
2022/08/07 06:50:08;;;;;;;2.10;1.90;;;;;;;;;;5055992;28;19996;-43
2022/08/07 06:52:37;;;;;;;1.70;1.60;;;;;;;;;;5055626;28;20127;-41
2022/08/07 06:55:05;;;;;;;7.03;1.90;;;;;;;;;;5037703;28;20051;-41
2022/08/07 06:57:32;;;;;;;1.70;1.60;;;;;;;;;;5038081;28;20108;-41
2022/08/07 06:59:58;;;;;;;1.75;1.38;;;;;;;;;;5037721;28;20091;-41
2022/08/07 07:02:25;;;;;;;2.33;1.77;;;;;;;;;;5055474;28;20025;-41
2022/08/07 07:04:51;;;;;;;1.67;1.52;;;;;;;;;;5055478;28;20060;-41
2022/08/07 07:07:17;;;;;;;1.60;1.50;;;;;;;;;;5055351;28;20057;-41
2022/08/07 07:09:45;;;;;;;2.08;1.58;;;;;;;;;;5055373;28;20065;-41
2022/08/07 07:12:38;;;;;;;1.70;1.60;;;;;;;;;;5055222;28;20581;-41
2022/08/07 07:15:12;;;;;;;1.75;1.65;;;;;;;;;;5055550;28;20036;-43
2022/08/07 07:17:52;;;;;;;3.38;1.60;;;;;;;;;;5055185;28;20025;-41
2022/08/07 07:20:22;;;;;;;1.80;1.70;;;;;;;;;;5055430;28;20074;-41
2022/08/07 07:22:48;;;;;;;3.38;1.60;;;;;;;;;;5055025;28;20032;-45
2022/08/07 07:25:16;;;;;;;4.32;1.50;;;;;;;;;;5055301;28;20076;-41
2022/08/07 07:27:49;;;;;;;2.20;1.40;;;;;;;;;;5054944;28;20025;-43
2022/08/07 07:30:14;;;;;;;1.65;1.48;;;;;;;;;;5055293;28;20513;-41
2022/08/07 07:32:41;;;;;;;4.47;1.35;;;;;;;;;;5055131;28;20060;-40
2022/08/07 07:35:10;;;;;;;5.70;1.35;;;;;;;;;;5055079;28;20033;-42
2022/08/07 07:37:38;;;;;;;1.35;0.93;;;;;;;;;;5053982;28;20480;-45
2022/08/07 07:40:14;;;;;;;12.63;1.50;;;;;;;;;;5055043;28;20500;-41
2022/08/07 07:42:40;;;;;;;1.13;1.10;;;;;;;;;;5054867;28;20033;-41
2022/08/07 07:45:06;;;;;;;2.38;1.60;;;;;;;;;;5054765;28;20071;-42
2022/08/07 07:47:38;;;;;;;5.82;1.10;;;;;;;;;;5054578;28;20029;-41
2022/08/07 07:50:06;;;;;;;1.58;1.20;;;;;;;;;;5054571;28;20504;-41
2022/08/07 07:52:33;;;;;;;1.25;1.10;;;;;;;;;;5054244;28;20051;-54
2022/08/07 07:54:59;;;;;;;1.13;1.02;;;;;;;;;;5054916;28;20029;-41
2022/08/07 07:57:25;;;;;;;1.30;1.20;;;;;;;;;;5054823;28;20485;-42
2022/08/07 07:59:53;;;;;;;2.03;1.25;;;;;;;;;;5054461;28;20447;-41
2022/08/07 08:02:20;;;;;;;1.42;1.33;;;;;;;;;;5054667;28;20033;-47
2022/08/07 08:04:46;;;;;;;1.63;1.33;;;;;;;;;;5054259;28;20025;-42
2022/08/07 08:07:12;;;;;;;10.07;1.63;;;;;;;;;;5054041;28;20484;-45
2022/08/07 08:09:39;;;;;;;4.22;1.75;;;;;;;;;;5054348;28;20071;-52
2022/08/07 08:12:05;;;;;;;1.10;1.10;;;;;;;;;;5054053;28;20035;-54
2022/08/07 08:14:34;;;;;;;1.40;1.30;;;;;;;;;;5036056;28;20033;-59
2022/08/07 08:17:02;;;;;;;1.80;1.60;;;;;;;;;;5054013;28;20036;-59
2022/08/07 08:19:31;;;;;;;2.70;1.38;;;;;;;;;;5053888;28;20116;-44
2022/08/07 08:27:33;;;;;;;2.25;1.70;;;;;;;;;;5054020;28;20028;-45
2022/08/07 08:30:05;;;;;;;1.70;1.60;;;;;;;;;;5054109;28;20489;-42
2022/08/07 08:32:35;;;;;;;2.10;1.50;;;;;;;;;;5053597;28;20032;-42
2022/08/07 08:35:02;;;;;;;3.60;1.48;;;;;;;;;;5053760;28;20595;-57
2022/08/07 08:37:31;;;;;;;1.70;1.60;;;;;;;;;;5053591;28;20057;-60
2022/08/07 08:39:56;;;;;;;1.33;1.23;;;;;;;;;;5053529;28;20112;-53
2022/08/07 08:42:32;;;;;;;1.95;1.50;;;;;;;;;;5053820;28;20112;-41
2022/08/07 08:45:00;;;;;;;1.27;1.13;;;;;;;;;;5053771;28;20453;-46
2022/08/07 08:47:41;;;;;;;2.40;1.58;;;;;;;;;;5053736;28;20029;-41
2022/08/07 08:50:16;;;;;;;23.23;2.35;;;;;;;;;;5053318;28;20079;-52
2022/08/07 08:53:01;;;;;;;1.83;1.02;;;;;;;;;;5053136;28;20485;-42
2022/08/07 08:55:35;;;;;;;2.58;1.40;;;;;;;;;;5053361;28;20033;-55
2022/08/07 08:58:25;;;;;;;1.42;1.17;;;;;;;;;;5053330;28;20056;-43
2022/08/07 09:00:58;;;;;;;3.72;1.33;;;;;;;;;;5053487;28;20028;-41
2022/08/07 09:03:32;;;;;;;4.45;1.33;;;;;;;;;;5052343;28;20041;-42
2022/08/07 09:06:05;;;;;;;2.30;1.30;;;;;;;;;;5053451;28;20032;-42
2022/08/07 09:08:44;;;;;;;6.68;1.42;;;;;;;;;;5053097;28;20021;-42
2022/08/07 09:11:20;;;;;;;3.75;1.30;;;;;;;;;;5058151;28;20397;-41
2022/08/07 09:14:02;;;;;;;5.07;1.42;;;;;;;;;;5052704;28;20031;-44
2022/08/07 09:16:44;;;;;;;2.88;1.13;;;;;;;;;;5052789;28;20025;-45
2022/08/07 09:19:47;;;;;;;1.45;1.20;;;;;;;;;;5034926;28;20043;-41
2022/08/07 09:22:30;;;;;;;3.58;1.20;;;;;;;;;;5052765;28;20385;-49
2022/08/07 09:25:07;;;;;;;4.22;1.50;;;;;;;;;;5052918;28;20111;-45
2022/08/07 09:27:48;;;;;;;12.27;1.80;;;;;;;;;;5053115;28;20032;-44
2022/08/07 09:30:14;;;;;;;4.72;1.50;;;;;;;;;;5053026;28;20028;-43
2022/08/07 09:32:55;;;;;;;3.22;1.20;;;;;;;;;;5052578;28;20035;-57
2022/08/07 09:35:36;;;;;;;8.20;1.70;;;;;;;;;;5052590;28;20028;-53
2022/08/07 09:38:10;;;;;;;4.40;1.23;;;;;;;;;;5052603;28;20381;-48
2022/08/07 09:41:07;;;;;;;4.85;1.10;;;;;;;;;;5052825;28;20389;-48
2022/08/07 09:43:32;;;;;;;26.20;2.35;;;;;;;;;;5052342;28;20025;-41
2022/08/07 09:46:26;;;;;;;5.63;1.08;;;;;;;;;;5052663;28;20036;-58
2022/08/07 09:49:14;;;;;;;5.82;1.15;;;;;;;;;;5052684;28;20415;-43
2022/08/07 09:51:42;;;;;;;5.80;1.55;;;;;;;;;;5062884;28;20028;-50
2022/08/07 09:54:17;;;;;;;12.23;1.58;;;;;;;;;;5061466;28;20510;-58
2022/08/07 09:56:55;;;;;;;4.65;1.15;;;;;;;;;;5043093;28;20029;-44
2022/08/07 09:59:46;;;;;;;2.67;1.02;;;;;;;;;;5060344;28;20067;-43
2022/08/07 10:02:42;;;;;;;1.58;1.35;;;;;;;;;;5062187;28;20478;-44
2022/08/07 10:05:31;;;;;;;3.50;1.70;;;;;;;;;;5062223;28;20108;-50
2022/08/07 10:08:35;;;;;;;1.63;1.20;;;;;;;;;;5062693;28;20035;-44
2022/08/07 10:11:07;;;;;;;1.13;1.10;;;;;;;;;;5022398;28;20033;-40
2022/08/07 10:14:10;;;;;;;5.10;1.58;;;;;;;;;;5061335;28;20423;-41
2022/08/07 10:17:02;;;;;;;1.88;1.30;;;;;;;;;;5065229;28;20036;-54
2022/08/07 10:19:33;;;;;;;3.15;1.50;;;;;;;;;;5054537;28;20078;-55
2022/08/07 10:22:41;;;;;;;3.90;1.77;;;;;;;;;;5052132;28;20021;-44
2022/08/07 10:25:23;;;;;;;1.10;1.10;;;;;;;;;;5056759;28;20033;-41
2022/08/07 10:27:52;;;;;;;1.83;1.38;;;;;;;;;;5063898;28;20033;-51
2022/08/07 10:30:50;;;;;;;3.50;1.25;;;;;;;;;;5072079;28;20025;-41
2022/08/07 10:33:34;;;;;;;6.93;2.28;;;;;;;;;;5066044;28;20033;-47
2022/08/07 10:36:15;;;;;;;7.97;1.63;;;;;;;;;;5060987;28;20040;-46
2022/08/07 10:39:04;;;;;;;20.60;3.03;;;;;;;;;;5067042;28;20029;-43
2022/08/07 10:41:40;;;;;;;3.22;1.70;;;;;;;;;;5072113;28;20513;-48
2022/08/07 10:44:15;;;;;;;2.28;1.75;;;;;;;;;;5071402;28;20032;-51
2022/08/07 10:47:05;;;;;;;5.03;1.40;;;;;;;;;;5071856;28;20025;-47
2022/08/07 10:49:45;;;;;;;1.08;1.08;;;;;;;;;;5060874;28;20045;-56
2022/08/07 10:52:20;;;;;;;69.75;5.18;;;;;;;;;;5071810;28;20074;-41
2022/08/07 10:54:56;;;;;;;3.15;1.58;;;;;;;;;;5071906;28;20464;-41
2022/08/07 10:57:45;;;;;;;3.58;1.33;;;;;;;;;;5070518;28;20166;-44
2022/08/07 11:00:12;;;;;;;1.70;1.50;;;;;;;;;;5070278;28;20483;-55
2022/08/07 11:02:40;;;;;;;2.00;1.48;;;;;;;;;;5069674;28;20032;-44
2022/08/07 11:05:30;;;;;;;3.17;1.73;;;;;;;;;;5070564;28;20052;-49
2022/08/07 11:08:23;;;;;;;3.20;1.60;;;;;;;;;;5071836;28;20029;-42
2022/08/07 11:11:00;;;;;;;2.05;1.40;;;;;;;;;;5071758;28;20031;-46
2022/08/07 11:13:35;;;;;;;2.40;1.67;;;;;;;;;;5074749;28;20033;-49
2022/08/07 11:16:10;;;;;;;2.25;1.70;;;;;;;;;;5075503;28;20029;-45
2022/08/07 11:18:47;;;;;;;2.00;1.58;;;;;;;;;;5075272;28;20063;-42
2022/08/07 11:21:28;;;;;;;2.38;1.75;;;;;;;;;;5075481;28;20111;-48
2022/08/07 11:24:27;;;;;;;8.00;2.97;;;;;;;;;;5075363;28;20024;-55
2022/08/07 11:27:01;;;;;;;8.40;1.73;;;;;;;;;;5075129;28;20032;-45
2022/08/07 11:29:57;;;;;;;2.40;1.50;;;;;;;;;;5074914;28;20377;-42
2022/08/07 11:32:48;;;;;;;4.13;1.80;;;;;;;;;;5063925;28;20036;-45
2022/08/07 11:35:21;;;;;;;2.58;1.70;;;;;;;;;;5074675;28;20024;-41
2022/08/07 11:38:13;;;;;;;2.40;1.80;;;;;;;;;;5074981;28;20039;-41
2022/08/07 11:40:48;;;;;;;2.85;1.90;;;;;;;;;;5074808;28;20089;-49
2022/08/07 11:43:16;;;;;;;4.00;1.73;;;;;;;;;;5075059;28;20024;-44
2022/08/07 11:46:08;;;;;;;2.25;2.00;;;;;;;;;;5074920;28;20032;-43
2022/08/07 11:49:13;;;;;;;6.75;2.08;;;;;;;;;;5073332;28;20369;-50
2022/08/07 11:51:49;;;;;;;3.25;2.10;;;;;;;;;;5074645;28;20024;-44
2022/08/07 11:54:28;;;;;;;2.58;2.38;;;;;;;;;;5074365;28;20052;-43
2022/08/07 11:57:05;;;;;;;2.53;2.33;;;;;;;;;;5074548;28;20021;-43
2022/08/07 12:00:10;;;;;;;4.13;1.90;;;;;;;;;;5074418;28;20352;-47
2022/08/07 12:03:09;;;;;;;2.65;1.60;;;;;;;;;;5073188;28;20038;-44
2022/08/07 12:05:46;;;;;;;1.87;1.60;;;;;;;;;;5051224;28;20133;-44
2022/08/07 12:08:31;;;;;;;2.40;2.20;;;;;;;;;;5073471;28;20737;-46
2022/08/07 12:11:14;;;;;;;2.15;2.03;;;;;;;;;;5044151;28;20033;-45
2022/08/07 12:13:48;;;;;;;2.10;1.63;;;;;;;;;;5054020;28;20060;-42
2022/08/07 12:16:19;;;;;;;2.20;1.85;;;;;;;;;;5036549;28;20048;-47
2022/08/07 12:19:15;;;;;;;4.07;2.17;;;;;;;;;;5053981;28;20029;-43
2022/08/07 12:21:57;;;;;;;4.00;2.13;;;;;;;;;;5050377;28;20378;-42
2022/08/07 12:25:51;;;;;;;5.60;2.53;;;;;;;;;;5053363;28;20481;-43
2022/08/07 12:27:29;;;;;;;3.03;2.10;;;;;;;;;;5053691;28;20044;-44
2022/08/07 12:30:06;;;;;;;1.88;1.70;;;;;;;;;;5053736;28;20033;-44
2022/08/07 12:33:17;;;;;;;4.05;2.10;;;;;;;;;;5053992;28;20131;-43
2022/08/07 12:35:45;;;;;;;3.30;1.92;;;;;;;;;;5011048;28;20028;-42
2022/08/07 12:38:12;;;;;;;2.15;1.98;;;;;;;;;;5053936;28;20434;-44
2022/08/07 12:40:40;;;;;;;2.50;2.30;;;;;;;;;;5053677;28;20075;-43
2022/08/07 12:43:08;;;;;;;4.07;2.50;;;;;;;;;;5053864;28;20427;-54
2022/08/07 12:45:46;;;;;;;3.35;2.33;;;;;;;;;;5053663;28;20376;-45
2022/08/07 12:48:35;;;;;;;3.10;2.42;;;;;;;;;;5063267;28;20548;-48
2022/08/07 12:51:11;;;;;;;5.30;2.40;;;;;;;;;;5061440;28;20087;-57
2022/08/07 12:53:44;;;;;;;4.95;2.50;;;;;;;;;;5053148;28;20396;-55
2022/08/07 12:56:32;;;;;;;2.50;2.30;;;;;;;;;;5053433;28;20123;-43
2022/08/07 12:59:00;;;;;;;3.60;2.42;;;;;;;;;;5053293;28;20043;-47
2022/08/07 13:01:43;;;;;;;8.13;2.60;;;;;;;;;;5053250;28;20108;-46
2022/08/07 13:04:43;;;;;;;2.65;2.38;;;;;;;;;;5053505;28;20500;-50
2022/08/07 13:07:45;;;;;;;3.38;2.42;;;;;;;;;;5053241;28;20053;-55
2022/08/07 13:10:19;;;;;;;2.40;2.20;;;;;;;;;;5053115;28;20037;-57
2022/08/07 13:12:50;;;;;;;2.38;2.17;;;;;;;;;;5052904;28;20503;-49
2022/08/07 13:15:35;;;;;;;2.53;2.33;;;;;;;;;;5053291;28;20025;-57
2022/08/07 13:18:13;;;;;;;8.18;2.50;;;;;;;;;;5053226;28;20025;-53
2022/08/07 13:20:45;;;;;;;3.50;2.33;;;;;;;;;;5061063;28;20020;-50
2022/08/07 13:23:18;;;;;;;3.78;1.95;;;;;;;;;;5061934;28;20110;-52
2022/08/07 13:26:04;;;;;;;2.50;2.20;;;;;;;;;;5061639;28;20020;-54
2022/08/07 13:28:37;;;;;;;3.33;2.10;;;;;;;;;;5061767;28;20043;-48
2022/08/07 13:31:20;;;;;;;4.47;2.17;;;;;;;;;;5067115;28;20051;-56
2022/08/07 13:34:33;;;;;;;3.30;2.00;;;;;;;;;;5055664;28;20029;-56
2022/08/07 13:37:15;;;;;;;2.65;2.13;;;;;;;;;;4977034;28;20059;-49
2022/08/07 13:40:05;;;;;;;3.25;2.10;;;;;;;;;;5052456;28;20049;-44
2022/08/07 13:42:34;;;;;;;4.97;2.25;;;;;;;;;;5052661;28;20029;-44
2022/08/07 13:45:06;;;;;;;3.20;2.30;;;;;;;;;;5051940;28;20469;-54
2022/08/07 13:47:35;;;;;;;3.60;1.92;;;;;;;;;;5060503;28;20100;-46
2022/08/07 13:50:01;;;;;;;3.15;2.00;;;;;;;;;;5044835;28;20489;-43
2022/08/07 13:52:29;;;;;;;4.57;2.13;;;;;;;;;;5060356;28;20028;-43
2022/08/07 13:54:56;;;;;;;3.92;2.20;;;;;;;;;;5062368;28;20369;-43
2022/08/07 13:57:29;;;;;;;3.92;2.25;;;;;;;;;;5062907;28;20060;-45
2022/08/07 13:59:58;;;;;;;4.63;2.05;;;;;;;;;;5061640;28;20427;-49
2022/08/07 14:02:27;;;;;;;2.83;2.07;;;;;;;;;;5060995;28;20094;-49
2022/08/07 14:05:13;;;;;;;5.15;2.28;;;;;;;;;;5060346;28;20029;-56
2022/08/07 14:07:43;;;;;;;3.28;2.17;;;;;;;;;;5052485;28;20044;-49
2022/08/07 14:10:10;;;;;;;4.57;2.50;;;;;;;;;;5052453;28;20047;-56
2022/08/07 14:12:56;;;;;;;3.38;2.35;;;;;;;;;;5052037;28;20067;-51
2022/08/07 14:15:42;;;;;;;2.90;2.58;;;;;;;;;;5052043;28;20066;-56
2022/08/07 14:18:30;;;;;;;3.40;2.40;;;;;;;;;;5051857;28;20500;-45
2022/08/07 14:21:23;;;;;;;1.70;1.60;;;;;;;;;;5035998;28;20404;-41
2022/08/07 14:23:57;;;;;;;2.28;2.08;;;;;;;;;;5051751;28;20021;-41
2022/08/07 14:26:31;;;;;;;9.68;2.58;;;;;;;;;;5051677;28;20021;-42
2022/08/07 14:29:00;;;;;;;3.60;2.10;;;;;;;;;;5052231;28;20079;-42
2022/08/07 14:31:26;;;;;;;7.70;1.93;;;;;;;;;;5050523;28;20519;-42
2022/08/07 14:33:53;;;;;;;3.03;2.20;;;;;;;;;;5050133;28;20033;-42
2022/08/07 14:36:22;;;;;;;6.55;2.60;;;;;;;;;;5050407;28;20025;-43
2022/08/07 14:38:49;;;;;;;3.08;2.28;;;;;;;;;;5051376;28;20040;-42
2022/08/07 14:41:26;;;;;;;4.05;2.25;;;;;;;;;;5051518;28;20067;-43
2022/08/07 14:43:54;;;;;;;3.92;2.10;;;;;;;;;;5051508;28;20021;-42
2022/08/07 14:46:21;;;;;;;3.22;1.80;;;;;;;;;;5052964;28;20037;-43
2022/08/07 14:48:49;;;;;;;2.58;2.10;;;;;;;;;;5056091;28;20029;-42
2022/08/07 14:51:21;;;;;;;1.80;1.70;;;;;;;;;;5056052;28;20099;-43
2022/08/07 14:53:51;;;;;;;3.83;1.70;;;;;;;;;;5055503;28;20049;-44
2022/08/07 14:56:21;;;;;;;2.20;2.00;;;;;;;;;;5055960;28;20099;-49
2022/08/07 14:58:50;;;;;;;2.20;2.00;;;;;;;;;;5055611;28;20025;-46
2022/08/07 15:01:17;;;;;;;4.18;2.17;;;;;;;;;;5055589;28;20500;-44
2022/08/07 15:03:43;;;;;;;3.67;2.10;;;;;;;;;;5055487;28;20040;-44
2022/08/07 15:06:11;;;;;;;2.45;2.15;;;;;;;;;;5055548;28;20100;-42
2022/08/07 15:08:48;;;;;;;2.17;1.80;;;;;;;;;;5055467;28;20029;-42
2022/08/07 15:11:24;;;;;;;3.50;2.20;;;;;;;;;;5055963;28;20385;-42
2022/08/07 15:13:56;;;;;;;2.40;2.20;;;;;;;;;;5055287;28;20029;-42
2022/08/07 15:16:44;;;;;;;4.03;2.20;;;;;;;;;;5055236;28;20563;-46
2022/08/07 15:19:16;;;;;;;2.55;2.30;;;;;;;;;;5055521;28;20029;-43
2022/08/07 15:21:45;;;;;;;5.30;2.28;;;;;;;;;;5055590;28;20029;-42